首页
METAR-TAF:

METAR-TAF

机场 :

哥本哈根凯斯楚普机场

哥本哈根, 丹麦

纬度: 55-37N, 经度: 012-39E, 海拔: 5米

当前天气观测

该预报发布于26分钟前的13:50 UTC
风速17节,风向西,有时为27节阵风
温度 22°C
湿度 41%
气压 1017 hPa
能见度10公里或以上
1500米以下无云,无积雨云

METAR: EKCH 191350Z 28017G27KT CAVOK 22/08 Q1017 NOSIG

时间: 16:16 (14:16 UTC)

预报

该预报发布于3小时和23分钟前的10:53 UTC
预报有效从19日的 12点(UTC)到 20日的 12点(UTC)
风速15节,风向西
能见度10公里或以上
多云层高于2500英尺
短暂存在
从 19日的 12点(UTC)到 19日的 17点(UTC)
风速18节,风向西,有时为28节阵风
成为
从 19日的 20点(UTC)到 19日的 23点(UTC)
风速8节,风向西
成为
从 20日的 07点(UTC)到 20日的 10点(UTC)
风速15节,风向南转西南

TAF: EKCH 191053Z 1912/2012 26015KT 9999 BKN025 TEMPO 1912/1917 27018G28KT BECMG 1920/1923 27008KT BECMG 2007/2010 20015KT

超过4000个机场的气象观测和天气预报(METAR&TAF报告)。

可查询的气象台以黄色和红色小点在地图上表示。

将鼠标移到小点上方,可查看气象台名称。

然后点击查看天气观测和预报。

如需切换地图:点击带黑十字的绿色按钮放大地图;点击带横线的绿色按钮缩小地图;或者点击绿色箭头查看邻近地区的地图。


METAR-TAF: